Time;durP1;ratioP1;P1;durP2;ratioP2;P2;SDS_P1;SDS_P2;PMS_P1;PMS_P2;Temp;Humidity;BMP_temperature;BMP_pressure;BME280_temperature;BME280_humidity;BME280_pressure;Samples;Min_cycle;Max_cycle;Signal;HPM_P1;HPM_P2
2021/07/14 00:00:45;;;;;;;1.40;1.23;;;;;;;;;;5117865;28;20631;-67
2021/07/14 00:03:13;;;;;;;1.83;1.43;;;;;;;;;;5117724;28;20312;-67
2021/07/14 00:05:41;;;;;;;1.47;1.37;;;;;;;;;;5118113;28;20272;-67
2021/07/14 00:08:10;;;;;;;3.60;1.60;;;;;;;;;;5117952;28;20303;-67
2021/07/14 00:14:15;;;;;;;1.80;1.70;;;;;;;;;;5117258;28;20553;-66
2021/07/14 00:17:16;;;;;;;1.67;1.33;;;;;;;;;;5117492;28;20219;-66
2021/07/14 00:22:30;;;;;;;1.43;1.33;;;;;;;;;;5097612;28;20355;-66
2021/07/14 00:24:59;;;;;;;2.03;1.73;;;;;;;;;;5100776;28;20265;-67
2021/07/14 00:27:27;;;;;;;3.23;1.80;;;;;;;;;;5101231;28;20632;-67
2021/07/14 00:29:58;;;;;;;1.90;1.53;;;;;;;;;;5101348;28;20284;-66
2021/07/14 00:32:27;;;;;;;2.00;1.63;;;;;;;;;;5101055;28;20259;-67
2021/07/14 00:34:56;;;;;;;2.07;1.63;;;;;;;;;;5100968;28;20546;-66
2021/07/14 00:37:24;;;;;;;2.50;1.73;;;;;;;;;;5100890;28;20241;-67
2021/07/14 00:39:55;;;;;;;2.50;2.03;;;;;;;;;;5100650;28;20700;-67
2021/07/14 00:42:23;;;;;;;4.03;1.83;;;;;;;;;;5101194;28;20225;-67
2021/07/14 00:44:51;;;;;;;2.50;2.30;;;;;;;;;;5101087;28;20272;-67
2021/07/14 00:47:27;;;;;;;2.77;1.87;;;;;;;;;;5100587;28;20739;-67
2021/07/14 00:49:55;;;;;;;5.57;2.03;;;;;;;;;;5100797;28;20200;-67
2021/07/14 00:52:23;;;;;;;2.17;1.90;;;;;;;;;;5100845;28;20226;-67
2021/07/14 00:54:51;;;;;;;2.30;2.10;;;;;;;;;;5100815;28;20216;-67
2021/07/14 00:57:21;;;;;;;4.23;2.20;;;;;;;;;;5100590;28;20294;-67
2021/07/14 00:59:49;;;;;;;2.30;2.07;;;;;;;;;;5100972;28;20239;-66
2021/07/14 01:02:17;;;;;;;2.33;2.00;;;;;;;;;;5100426;28;20237;-67
2021/07/14 01:04:50;;;;;;;3.90;2.30;;;;;;;;;;5100472;28;20209;-67
2021/07/14 01:07:23;;;;;;;2.10;1.90;;;;;;;;;;5100416;28;20205;-67
2021/07/14 01:09:55;;;;;;;2.10;1.90;;;;;;;;;;5100350;28;20626;-66
2021/07/14 01:12:26;;;;;;;2.20;2.00;;;;;;;;;;5100088;28;20582;-66
2021/07/14 01:14:58;;;;;;;1.77;1.50;;;;;;;;;;5100561;28;20216;-66
2021/07/14 01:17:27;;;;;;;1.97;1.47;;;;;;;;;;5100257;28;20215;-66
2021/07/14 01:20:04;;;;;;;1.60;1.27;;;;;;;;;;5099995;28;20767;-66
2021/07/14 01:22:37;;;;;;;2.80;2.20;;;;;;;;;;5100096;28;20730;-66
2021/07/14 01:25:06;;;;;;;3.87;2.20;;;;;;;;;;5100110;28;20229;-66
2021/07/14 01:27:38;;;;;;;8.07;3.30;;;;;;;;;;5100216;28;20297;-66
2021/07/14 01:30:08;;;;;;;4.83;2.90;;;;;;;;;;5100103;28;20208;-66
2021/07/14 01:32:36;;;;;;;3.27;2.70;;;;;;;;;;5099492;28;20276;-66
2021/07/14 01:35:07;;;;;;;5.30;2.30;;;;;;;;;;5099874;28;20210;-67
2021/07/14 01:37:37;;;;;;;2.67;2.40;;;;;;;;;;5099322;28;20233;-67
2021/07/14 01:40:07;;;;;;;2.37;2.17;;;;;;;;;;5099504;28;20236;-67
2021/07/14 01:42:36;;;;;;;3.53;2.17;;;;;;;;;;5099649;28;20225;-66
2021/07/14 01:45:05;;;;;;;3.53;2.90;;;;;;;;;;5099433;28;20210;-67
2021/07/14 01:47:34;;;;;;;3.90;2.50;;;;;;;;;;5099148;28;20227;-66
2021/07/14 01:50:04;;;;;;;4.33;2.37;;;;;;;;;;5099704;28;20209;-66
2021/07/14 01:52:32;;;;;;;4.73;2.80;;;;;;;;;;5099452;28;20225;-67
2021/07/14 01:55:02;;;;;;;2.50;2.13;;;;;;;;;;5099383;28;20715;-67
2021/07/14 01:57:32;;;;;;;3.00;2.10;;;;;;;;;;5099698;28;20218;-66
2021/07/14 02:00:02;;;;;;;5.07;2.53;;;;;;;;;;5099662;28;20230;-66
2021/07/14 02:02:33;;;;;;;2.70;2.37;;;;;;;;;;5099230;28;20233;-66
2021/07/14 02:05:02;;;;;;;3.03;2.50;;;;;;;;;;5099591;28;20209;-66
2021/07/14 02:07:30;;;;;;;3.67;3.10;;;;;;;;;;5099546;28;20217;-66
2021/07/14 02:09:58;;;;;;;7.63;3.50;;;;;;;;;;5099557;28;20205;-66
2021/07/14 02:12:29;;;;;;;6.50;4.23;;;;;;;;;;5099160;28;20227;-66
2021/07/14 02:14:58;;;;;;;6.43;4.43;;;;;;;;;;5099471;28;20216;-66
2021/07/14 02:17:29;;;;;;;6.57;4.63;;;;;;;;;;5099042;28;20212;-66
2021/07/14 02:19:58;;;;;;;7.17;4.57;;;;;;;;;;5098749;28;20221;-66
2021/07/14 02:22:27;;;;;;;11.90;6.00;;;;;;;;;;5098982;28;20225;-66
2021/07/14 02:24:55;;;;;;;7.77;4.97;;;;;;;;;;5098665;28;20237;-66
2021/07/14 02:27:23;;;;;;;6.17;4.43;;;;;;;;;;5098980;28;20292;-66
2021/07/14 02:29:51;;;;;;;9.43;4.37;;;;;;;;;;5098633;28;20229;-66
2021/07/14 02:32:19;;;;;;;6.37;4.03;;;;;;;;;;5098024;28;20342;-66
2021/07/14 02:34:50;;;;;;;6.00;3.87;;;;;;;;;;5098653;28;20213;-66
2021/07/14 02:37:22;;;;;;;5.30;4.20;;;;;;;;;;5098554;28;20243;-66
2021/07/14 02:39:52;;;;;;;8.90;4.13;;;;;;;;;;5098266;28;20205;-66
2021/07/14 02:42:28;;;;;;;8.23;4.40;;;;;;;;;;5098758;28;20233;-66
2021/07/14 02:45:18;;;;;;;8.90;3.97;;;;;;;;;;5098945;28;20208;-64
2021/07/14 02:47:46;;;;;;;10.83;4.00;;;;;;;;;;5097857;28;20201;-65
2021/07/14 02:50:17;;;;;;;8.23;3.60;;;;;;;;;;5098385;28;20574;-66
2021/07/14 02:52:46;;;;;;;7.33;3.80;;;;;;;;;;5098038;28;20326;-66
2021/07/14 02:55:16;;;;;;;7.03;3.23;;;;;;;;;;5098050;28;20553;-66
2021/07/14 02:57:44;;;;;;;7.50;3.73;;;;;;;;;;5098383;28;20207;-67
2021/07/14 03:00:13;;;;;;;7.90;3.90;;;;;;;;;;5097776;28;20704;-66
2021/07/14 03:02:41;;;;;;;4.57;3.37;;;;;;;;;;5097475;28;20620;-67
2021/07/14 03:05:10;;;;;;;6.60;3.90;;;;;;;;;;5097911;28;20209;-67
2021/07/14 03:07:40;;;;;;;5.57;3.33;;;;;;;;;;5098297;28;20211;-67
2021/07/14 03:10:08;;;;;;;6.73;3.73;;;;;;;;;;5098306;28;20206;-66
2021/07/14 03:12:37;;;;;;;7.30;4.03;;;;;;;;;;5097878;28;20313;-67
2021/07/14 03:15:07;;;;;;;5.30;3.10;;;;;;;;;;5098012;28;20665;-67
2021/07/14 03:17:37;;;;;;;4.10;3.27;;;;;;;;;;5098012;28;20216;-66
2021/07/14 03:20:08;;;;;;;5.97;3.17;;;;;;;;;;5098086;28;20205;-66
2021/07/14 03:22:37;;;;;;;3.90;2.80;;;;;;;;;;5098001;28;20597;-67
2021/07/14 03:25:07;;;;;;;7.10;3.57;;;;;;;;;;5097991;28;20197;-66
2021/07/14 03:27:35;;;;;;;9.13;3.70;;;;;;;;;;5098228;28;20683;-66
2021/07/14 03:30:04;;;;;;;5.63;2.83;;;;;;;;;;5097930;28;20205;-66
2021/07/14 03:32:32;;;;;;;3.17;2.87;;;;;;;;;;5097661;28;20264;-67
2021/07/14 03:35:00;;;;;;;5.53;3.10;;;;;;;;;;5097634;28;20668;-66
2021/07/14 03:37:28;;;;;;;6.43;3.60;;;;;;;;;;5097731;28;20661;-66
2021/07/14 03:39:56;;;;;;;5.43;3.60;;;;;;;;;;5097604;28;20205;-66
2021/07/14 03:42:26;;;;;;;8.10;3.43;;;;;;;;;;5097669;28;20702;-66
2021/07/14 03:44:54;;;;;;;5.30;3.27;;;;;;;;;;5098045;28;20215;-67
2021/07/14 03:47:23;;;;;;;4.97;2.70;;;;;;;;;;5097460;28;20205;-66
2021/07/14 03:49:51;;;;;;;5.87;3.13;;;;;;;;;;5097959;28;20292;-66
2021/07/14 03:52:20;;;;;;;4.90;2.90;;;;;;;;;;5097575;28;20225;-67
2021/07/14 03:54:48;;;;;;;5.00;3.17;;;;;;;;;;5097838;28;20244;-67
2021/07/14 03:57:17;;;;;;;6.73;3.40;;;;;;;;;;5097880;28;20299;-66
2021/07/14 03:59:46;;;;;;;3.93;3.10;;;;;;;;;;5101152;28;20211;-66
2021/07/14 04:02:15;;;;;;;3.43;2.77;;;;;;;;;;5101174;28;20233;-66
2021/07/14 04:04:45;;;;;;;3.50;2.73;;;;;;;;;;5101894;28;20215;-66
2021/07/14 04:07:15;;;;;;;5.57;2.47;;;;;;;;;;5101774;28;20210;-67
2021/07/14 04:09:44;;;;;;;4.63;2.87;;;;;;;;;;5101387;28;20639;-66
2021/07/14 04:12:12;;;;;;;3.57;2.90;;;;;;;;;;5101318;28;20221;-66
2021/07/14 04:14:40;;;;;;;3.47;2.20;;;;;;;;;;5101710;28;20209;-66
2021/07/14 04:17:09;;;;;;;4.23;2.63;;;;;;;;;;5101279;28;20286;-66
2021/07/14 04:19:39;;;;;;;4.33;2.50;;;;;;;;;;5101627;28;20288;-67
2021/07/14 04:22:08;;;;;;;3.63;2.17;;;;;;;;;;5101356;28;20312;-66
2021/07/14 04:24:36;;;;;;;4.23;2.40;;;;;;;;;;5101083;28;20239;-66
2021/07/14 04:27:05;;;;;;;5.50;2.77;;;;;;;;;;5088111;28;20208;-66
2021/07/14 04:29:33;;;;;;;3.23;2.50;;;;;;;;;;5101093;28;20205;-67
2021/07/14 04:32:01;;;;;;;2.40;1.97;;;;;;;;;;5100810;28;20573;-66
2021/07/14 04:34:30;;;;;;;4.13;2.10;;;;;;;;;;5101298;28;20226;-67
2021/07/14 04:36:58;;;;;;;2.07;1.80;;;;;;;;;;5100827;28;20606;-66
2021/07/14 04:39:26;;;;;;;2.27;1.70;;;;;;;;;;5100919;28;20206;-66
2021/07/14 04:41:54;;;;;;;2.77;2.00;;;;;;;;;;5100833;28;20229;-66
2021/07/14 04:44:31;;;;;;;7.97;2.83;;;;;;;;;;5101031;28;20209;-67
2021/07/14 04:47:00;;;;;;;3.03;2.20;;;;;;;;;;5100457;28;20204;-66
2021/07/14 04:49:30;;;;;;;4.07;1.87;;;;;;;;;;5100657;28;20205;-66
2021/07/14 04:51:58;;;;;;;5.10;1.90;;;;;;;;;;5100375;28;20708;-66
2021/07/14 04:54:26;;;;;;;2.53;1.67;;;;;;;;;;5100452;28;20205;-66
2021/07/14 04:56:54;;;;;;;2.90;2.00;;;;;;;;;;5100840;28;20220;-65
2021/07/14 04:59:22;;;;;;;2.20;1.60;;;;;;;;;;5100736;28;20269;-65
2021/07/14 05:01:50;;;;;;;2.40;1.80;;;;;;;;;;5100432;28;20235;-65
2021/07/14 05:04:18;;;;;;;3.70;1.73;;;;;;;;;;5100824;28;20262;-65
2021/07/14 05:06:48;;;;;;;4.43;1.77;;;;;;;;;;5100427;28;20268;-65
2021/07/14 05:09:17;;;;;;;1.97;1.77;;;;;;;;;;5099780;28;20658;-65
2021/07/14 05:11:45;;;;;;;1.67;1.57;;;;;;;;;;5100262;28;20222;-66
2021/07/14 05:14:13;;;;;;;2.33;1.53;;;;;;;;;;5100669;28;20296;-66
2021/07/14 05:16:53;;;;;;;3.57;1.50;;;;;;;;;;5099941;28;20676;-66
2021/07/14 05:19:22;;;;;;;1.73;1.30;;;;;;;;;;5100245;28;20640;-66
2021/07/14 05:21:51;;;;;;;1.37;1.27;;;;;;;;;;5100297;28;20230;-66
2021/07/14 05:24:19;;;;;;;3.07;1.47;;;;;;;;;;5100508;28;20220;-66
2021/07/14 05:26:47;;;;;;;1.40;1.30;;;;;;;;;;5100164;28;20223;-66
2021/07/14 05:29:16;;;;;;;3.33;1.70;;;;;;;;;;5100105;28;20237;-66
2021/07/14 05:31:43;;;;;;;1.70;1.27;;;;;;;;;;5099615;28;20267;-66
2021/07/14 05:34:12;;;;;;;1.80;1.33;;;;;;;;;;5100062;28;20209;-66
2021/07/14 05:36:40;;;;;;;1.40;1.30;;;;;;;;;;5099756;28;20704;-66
2021/07/14 05:39:09;;;;;;;2.07;1.40;;;;;;;;;;5099896;28;20673;-66
2021/07/14 05:41:37;;;;;;;1.27;1.00;;;;;;;;;;5099796;28;20240;-66
2021/07/14 05:44:05;;;;;;;2.80;1.53;;;;;;;;;;5099775;28;20570;-66
2021/07/14 05:46:34;;;;;;;1.43;1.20;;;;;;;;;;5086300;28;20220;-66
2021/07/14 05:49:03;;;;;;;1.33;1.10;;;;;;;;;;5099805;28;20288;-66
2021/07/14 05:51:31;;;;;;;1.27;1.03;;;;;;;;;;5099854;28;20233;-66
2021/07/14 05:53:59;;;;;;;2.10;1.33;;;;;;;;;;5099829;28;20202;-66
2021/07/14 05:56:28;;;;;;;1.00;1.00;;;;;;;;;;5099614;28;20236;-66
2021/07/14 05:58:56;;;;;;;3.13;1.00;;;;;;;;;;5099421;28;20209;-66
2021/07/14 06:01:24;;;;;;;1.57;1.20;;;;;;;;;;5099210;28;20225;-66
2021/07/14 06:03:52;;;;;;;1.17;1.07;;;;;;;;;;5099662;28;20263;-66
2021/07/14 06:06:20;;;;;;;1.90;1.17;;;;;;;;;;5099531;28;20205;-66
2021/07/14 06:08:48;;;;;;;1.83;1.27;;;;;;;;;;5099288;28;20209;-66
2021/07/14 06:11:16;;;;;;;3.97;1.30;;;;;;;;;;5099063;28;20239;-66
2021/07/14 06:13:46;;;;;;;2.77;1.57;;;;;;;;;;5099070;28;20205;-66
2021/07/14 06:16:14;;;;;;;1.77;1.10;;;;;;;;;;5099200;28;20216;-66
2021/07/14 06:18:42;;;;;;;1.13;1.00;;;;;;;;;;5099033;28;20206;-66
2021/07/14 06:21:10;;;;;;;1.53;1.43;;;;;;;;;;5098446;28;20683;-66
2021/07/14 06:23:38;;;;;;;1.97;1.57;;;;;;;;;;5098903;28;20227;-66
2021/07/14 06:26:06;;;;;;;1.60;1.50;;;;;;;;;;5099126;28;20204;-66
2021/07/14 06:28:34;;;;;;;1.33;1.23;;;;;;;;;;5098875;28;20210;-66
2021/07/14 06:31:05;;;;;;;2.93;1.60;;;;;;;;;;5098780;28;20216;-66
2021/07/14 06:33:35;;;;;;;1.87;1.77;;;;;;;;;;5098835;28;20206;-66
2021/07/14 06:36:04;;;;;;;1.93;1.47;;;;;;;;;;5098603;28;20276;-65
2021/07/14 06:38:32;;;;;;;2.17;1.47;;;;;;;;;;5099018;28;20219;-65
2021/07/14 06:41:00;;;;;;;1.60;1.50;;;;;;;;;;5098438;28;20216;-65
2021/07/14 06:43:41;;;;;;;3.13;1.47;;;;;;;;;;5098586;28;20300;-65
2021/07/14 06:46:11;;;;;;;1.23;1.20;;;;;;;;;;5098534;28;20240;-66
2021/07/14 06:48:39;;;;;;;1.53;1.40;;;;;;;;;;5098578;28;20217;-65
2021/07/14 06:51:07;;;;;;;1.50;1.40;;;;;;;;;;5098648;28;20206;-66
2021/07/14 06:53:35;;;;;;;2.90;1.53;;;;;;;;;;5098610;28;20216;-65
2021/07/14 06:56:04;;;;;;;1.50;1.40;;;;;;;;;;5098459;28;20205;-65
2021/07/14 06:58:33;;;;;;;1.27;1.20;;;;;;;;;;5098540;28;20207;-65
2021/07/14 07:01:01;;;;;;;2.00;1.80;;;;;;;;;;5098171;28;20213;-66
2021/07/14 07:07:25;;;;;;;1.40;1.30;;;;;;;;;;5098286;28;20177;-65
2021/07/14 07:09:55;;;;;;;1.60;1.50;;;;;;;;;;5098371;28;20201;-66
2021/07/14 07:12:23;;;;;;;1.73;1.40;;;;;;;;;;5098292;28;20224;-65
2021/07/14 07:14:51;;;;;;;4.57;1.70;;;;;;;;;;5095729;28;20258;-65
2021/07/14 07:17:19;;;;;;;2.93;1.80;;;;;;;;;;5093739;28;20266;-65
2021/07/14 07:19:47;;;;;;;1.97;1.63;;;;;;;;;;5097978;28;20208;-65
2021/07/14 07:22:15;;;;;;;3.13;1.50;;;;;;;;;;5097697;28;20221;-67
2021/07/14 07:24:42;;;;;;;3.80;2.27;;;;;;;;;;5097613;28;20206;-65
2021/07/14 07:27:12;;;;;;;2.63;1.83;;;;;;;;;;5097842;28;20277;-66
2021/07/14 07:29:40;;;;;;;2.43;1.70;;;;;;;;;;5097971;28;20661;-67
2021/07/14 07:32:08;;;;;;;2.60;1.60;;;;;;;;;;5085940;28;20221;-67
2021/07/14 07:34:36;;;;;;;1.90;1.80;;;;;;;;;;5098587;28;20255;-66
2021/07/14 07:37:08;;;;;;;2.50;1.60;;;;;;;;;;5098001;28;20229;-66
2021/07/14 07:39:37;;;;;;;2.27;2.07;;;;;;;;;;5097588;28;20288;-66
2021/07/14 07:42:06;;;;;;;2.20;1.90;;;;;;;;;;5097371;28;20225;-66
2021/07/14 07:44:35;;;;;;;3.17;1.70;;;;;;;;;;5097337;28;20882;-66
2021/07/14 07:47:03;;;;;;;1.83;1.47;;;;;;;;;;5097448;28;20205;-66
2021/07/14 07:49:32;;;;;;;3.17;2.13;;;;;;;;;;5097462;28;20202;-66
2021/07/14 07:52:09;;;;;;;1.70;1.60;;;;;;;;;;5097532;28;20269;-66
2021/07/14 07:54:37;;;;;;;2.57;2.37;;;;;;;;;;5097324;28;20234;-66
2021/07/14 07:57:05;;;;;;;1.63;1.53;;;;;;;;;;5097411;28;20209;-66
2021/07/14 07:59:34;;;;;;;3.50;1.67;;;;;;;;;;5097533;28;20228;-67
2021/07/14 08:02:04;;;;;;;1.90;1.80;;;;;;;;;;5097171;28;20227;-66
2021/07/14 08:04:32;;;;;;;2.03;1.80;;;;;;;;;;5097366;28;20221;-66
2021/07/14 08:07:00;;;;;;;1.80;1.70;;;;;;;;;;5097653;28;20240;-66
2021/07/14 08:09:28;;;;;;;2.10;1.90;;;;;;;;;;5097669;28;20205;-66
2021/07/14 08:11:57;;;;;;;1.70;1.60;;;;;;;;;;5097571;28;20228;-66
2021/07/14 08:14:25;;;;;;;2.90;1.77;;;;;;;;;;5097513;28;20574;-66
2021/07/14 08:16:53;;;;;;;3.43;1.77;;;;;;;;;;5097375;28;20206;-65
2021/07/14 08:19:26;;;;;;;3.50;2.03;;;;;;;;;;5097665;28;20209;-65
2021/07/14 08:21:54;;;;;;;4.43;2.13;;;;;;;;;;5097544;28;20316;-65
2021/07/14 08:24:22;;;;;;;2.80;1.90;;;;;;;;;;5097618;28;20285;-65
2021/07/14 08:26:50;;;;;;;2.30;2.10;;;;;;;;;;5097486;28;20201;-65
2021/07/14 08:29:36;;;;;;;2.10;1.90;;;;;;;;;;5097520;28;20213;-65
2021/07/14 08:32:04;;;;;;;4.63;2.10;;;;;;;;;;5097261;28;20637;-65
2021/07/14 08:34:33;;;;;;;2.33;1.50;;;;;;;;;;5097466;28;20213;-67
2021/07/14 08:37:01;;;;;;;1.97;1.87;;;;;;;;;;5097367;28;20268;-67
2021/07/14 08:39:29;;;;;;;2.50;1.70;;;;;;;;;;5097095;28;20607;-67
2021/07/14 08:41:57;;;;;;;1.70;1.60;;;;;;;;;;5097384;28;20717;-66
2021/07/14 08:44:26;;;;;;;2.20;1.73;;;;;;;;;;5098233;28;20229;-66
2021/07/14 08:46:54;;;;;;;1.97;1.77;;;;;;;;;;5100920;28;20296;-67
2021/07/14 08:49:23;;;;;;;2.27;1.60;;;;;;;;;;5100743;28;20539;-66
2021/07/14 08:51:54;;;;;;;1.87;1.70;;;;;;;;;;5100786;28;20308;-66
2021/07/14 08:54:22;;;;;;;3.43;1.60;;;;;;;;;;5101156;28;20665;-67
2021/07/14 08:56:51;;;;;;;2.47;1.80;;;;;;;;;;5101003;28;20691;-66
2021/07/14 08:59:19;;;;;;;2.40;1.60;;;;;;;;;;5100893;28;20213;-69
2021/07/14 09:01:48;;;;;;;1.30;1.20;;;;;;;;;;5100504;28;20226;-66
2021/07/14 09:04:16;;;;;;;2.10;1.60;;;;;;;;;;5100456;28;20316;-65
2021/07/14 09:06:44;;;;;;;2.93;1.57;;;;;;;;;;5100499;28;20219;-64
2021/07/14 09:09:14;;;;;;;1.50;1.40;;;;;;;;;;5100469;28;20266;-65
2021/07/14 09:11:50;;;;;;;1.63;1.10;;;;;;;;;;5100122;28;20221;-66
2021/07/14 09:14:25;;;;;;;1.43;1.33;;;;;;;;;;5087891;28;20205;-65
2021/07/14 09:16:53;;;;;;;1.73;1.37;;;;;;;;;;5100005;28;20632;-65
2021/07/14 09:19:23;;;;;;;2.10;1.47;;;;;;;;;;5100218;28;20241;-65
2021/07/14 09:21:51;;;;;;;2.70;1.50;;;;;;;;;;5100310;28;20222;-65
2021/07/14 09:24:26;;;;;;;3.70;1.27;;;;;;;;;;5100374;28;20308;-65
2021/07/14 09:26:54;;;;;;;1.60;1.50;;;;;;;;;;5100187;28;20209;-66
2021/07/14 09:29:23;;;;;;;1.40;1.30;;;;;;;;;;5100362;28;20270;-66
2021/07/14 09:31:51;;;;;;;1.37;1.30;;;;;;;;;;5099550;28;20308;-66
2021/07/14 09:34:23;;;;;;;4.20;1.37;;;;;;;;;;5100200;28;20201;-66
2021/07/14 09:36:51;;;;;;;1.60;1.50;;;;;;;;;;5099996;28;20238;-65
2021/07/14 09:39:30;;;;;;;3.63;1.57;;;;;;;;;;5099795;28;20610;-65
2021/07/14 09:42:02;;;;;;;1.30;1.20;;;;;;;;;;5099775;28;20226;-65
2021/07/14 09:44:33;;;;;;;3.70;1.17;;;;;;;;;;5099591;28;20231;-65
2021/07/14 09:54:01;;;;;;;3.43;1.53;;;;;;;;;;5099600;28;20207;-65
2021/07/14 09:56:33;;;;;;;2.53;1.77;;;;;;;;;;5099691;28;20205;-66
2021/07/14 09:59:02;;;;;;;1.27;1.17;;;;;;;;;;5099617;28;20209;-66
2021/07/14 10:01:34;;;;;;;1.53;1.43;;;;;;;;;;5099021;28;20225;-67
2021/07/14 10:04:03;;;;;;;1.00;1.00;;;;;;;;;;5099232;28;20228;-67
2021/07/14 10:07:03;;;;;;;2.10;1.30;;;;;;;;;;5099268;28;20575;-67
2021/07/14 10:09:31;;;;;;;1.13;1.13;;;;;;;;;;5099360;28;20209;-67
2021/07/14 10:12:14;;;;;;;4.13;1.83;;;;;;;;;;5099107;28;20224;-67
2021/07/14 10:14:43;;;;;;;1.40;1.30;;;;;;;;;;5098941;28;20213;-67
2021/07/14 10:17:11;;;;;;;1.13;1.03;;;;;;;;;;5098577;28;20238;-67
2021/07/14 10:19:39;;;;;;;3.50;1.37;;;;;;;;;;5098998;28;20216;-67
2021/07/14 10:22:07;;;;;;;1.40;1.30;;;;;;;;;;5098936;28;20239;-67
2021/07/14 10:24:35;;;;;;;1.43;1.33;;;;;;;;;;5099097;28;20236;-67
2021/07/14 10:27:04;;;;;;;1.10;1.10;;;;;;;;;;5085607;28;20292;-67
2021/07/14 10:29:32;;;;;;;2.50;1.30;;;;;;;;;;5099142;28;20273;-67
2021/07/14 10:32:01;;;;;;;2.33;1.30;;;;;;;;;;5098770;28;20259;-67
2021/07/14 10:34:29;;;;;;;1.57;1.47;;;;;;;;;;5098996;28;20208;-67
2021/07/14 10:36:58;;;;;;;2.23;1.10;;;;;;;;;;5098619;28;20241;-67
2021/07/14 10:39:27;;;;;;;2.33;1.33;;;;;;;;;;5098643;28;20687;-67
2021/07/14 10:41:55;;;;;;;1.37;1.27;;;;;;;;;;5098615;28;20225;-67
2021/07/14 10:44:24;;;;;;;1.67;1.57;;;;;;;;;;5098556;28;20229;-67
2021/07/14 10:46:52;;;;;;;1.83;1.10;;;;;;;;;;5098471;28;20206;-67
2021/07/14 10:49:24;;;;;;;3.83;1.70;;;;;;;;;;5098567;28;20632;-67
2021/07/14 10:51:54;;;;;;;2.07;1.40;;;;;;;;;;5098294;28;20231;-67
2021/07/14 10:54:24;;;;;;;2.73;1.60;;;;;;;;;;5098361;28;20212;-67
2021/07/14 10:56:53;;;;;;;2.53;1.90;;;;;;;;;;5098531;28;20660;-67
2021/07/14 10:59:22;;;;;;;1.50;1.40;;;;;;;;;;5098595;28;20209;-67
2021/07/14 11:01:50;;;;;;;1.70;1.57;;;;;;;;;;5097997;28;20226;-67
2021/07/14 11:04:37;;;;;;;2.13;1.90;;;;;;;;;;5098267;28;20201;-67
2021/07/14 11:07:07;;;;;;;2.03;1.70;;;;;;;;;;5097779;28;20215;-67
2021/07/14 11:16:32;;;;;;;1.87;1.30;;;;;;;;;;5097969;28;20492;-67
2021/07/14 11:19:02;;;;;;;2.13;1.40;;;;;;;;;;5097915;28;20629;-67
2021/07/14 11:21:47;;;;;;;2.57;1.70;;;;;;;;;;5098364;28;20240;-67
2021/07/14 11:24:30;;;;;;;3.20;2.20;;;;;;;;;;5088015;28;20617;-66
2021/07/14 11:27:19;;;;;;;1.97;1.53;;;;;;;;;;5085080;28;20518;-67
2021/07/14 11:29:49;;;;;;;4.87;2.10;;;;;;;;;;5097526;28;20209;-67
2021/07/14 11:32:41;;;;;;;1.43;1.33;;;;;;;;;;5097944;28;20259;-67
2021/07/14 11:35:11;;;;;;;2.30;1.70;;;;;;;;;;5098850;28;20262;-67
2021/07/14 11:37:40;;;;;;;1.90;1.60;;;;;;;;;;5097470;28;20600;-67
2021/07/14 11:40:27;;;;;;;2.93;1.33;;;;;;;;;;5097461;28;20212;-67
2021/07/14 11:42:56;;;;;;;1.90;1.50;;;;;;;;;;5097181;28;20320;-67
2021/07/14 11:45:36;;;;;;;2.03;1.40;;;;;;;;;;5097795;28;20231;-67
2021/07/14 11:48:05;;;;;;;1.93;1.70;;;;;;;;;;5097752;28;20205;-67
2021/07/14 11:50:49;;;;;;;1.80;1.70;;;;;;;;;;5097907;28;20211;-66
2021/07/14 11:53:39;;;;;;;4.13;1.83;;;;;;;;;;5096004;28;20227;-67
2021/07/14 11:56:08;;;;;;;2.63;1.47;;;;;;;;;;5093421;28;20197;-67
2021/07/14 11:58:59;;;;;;;2.37;1.60;;;;;;;;;;5097360;28;20269;-66
2021/07/14 12:01:45;;;;;;;1.20;1.10;;;;;;;;;;5096866;28;20225;-67
2021/07/14 12:04:15;;;;;;;1.30;1.20;;;;;;;;;;5096609;28;20209;-67
2021/07/14 12:06:44;;;;;;;0.90;0.90;;;;;;;;;;5096901;28;20228;-67
2021/07/14 12:09:26;;;;;;;1.00;0.93;;;;;;;;;;5097005;28;20656;-67
2021/07/14 12:11:55;;;;;;;2.07;1.10;;;;;;;;;;5096919;28;20223;-66
2021/07/14 12:14:25;;;;;;;1.00;1.00;;;;;;;;;;5097570;28;20241;-67
2021/07/14 12:16:54;;;;;;;0.90;0.90;;;;;;;;;;5097206;28;20209;-67
2021/07/14 12:19:24;;;;;;;1.80;0.93;;;;;;;;;;5098482;28;20209;-67
2021/07/14 12:21:52;;;;;;;2.17;0.80;;;;;;;;;;5101508;28;20228;-67
2021/07/14 12:24:28;;;;;;;1.00;0.80;;;;;;;;;;5101553;28;20209;-67
2021/07/14 12:27:00;;;;;;;2.17;1.10;;;;;;;;;;5101177;28;20223;-67
2021/07/14 12:29:28;;;;;;;1.23;1.03;;;;;;;;;;5101255;28;20248;-67
2021/07/14 12:31:56;;;;;;;1.30;1.07;;;;;;;;;;5100644;28;20248;-67
2021/07/14 12:34:26;;;;;;;1.80;1.20;;;;;;;;;;5100740;28;20622;-67
2021/07/14 12:36:55;;;;;;;1.00;0.97;;;;;;;;;;5100727;28;20324;-67
2021/07/14 12:39:23;;;;;;;0.97;0.97;;;;;;;;;;5100796;28;20270;-67
2021/07/14 12:41:52;;;;;;;1.50;1.40;;;;;;;;;;5100917;28;20311;-67
2021/07/14 12:44:25;;;;;;;1.73;1.27;;;;;;;;;;5100652;28;20215;-67
2021/07/14 12:46:54;;;;;;;1.40;1.30;;;;;;;;;;5100560;28;20232;-67
2021/07/14 12:49:23;;;;;;;1.67;1.37;;;;;;;;;;5100651;28;20259;-67
2021/07/14 12:52:05;;;;;;;1.37;1.27;;;;;;;;;;5100488;28;20293;-67
2021/07/14 12:54:33;;;;;;;1.43;1.33;;;;;;;;;;5100588;28;20206;-67
2021/07/14 12:57:23;;;;;;;2.27;1.70;;;;;;;;;;5100624;28;20208;-67
2021/07/14 12:59:55;;;;;;;1.63;1.20;;;;;;;;;;5095923;28;20209;-67
2021/07/14 13:02:24;;;;;;;1.53;1.40;;;;;;;;;;5100171;28;20313;-67
2021/07/14 13:04:53;;;;;;;1.20;1.03;;;;;;;;;;5100553;28;20271;-67
2021/07/14 13:07:23;;;;;;;1.13;1.03;;;;;;;;;;5100634;28;20229;-67
2021/07/14 13:09:52;;;;;;;1.20;1.10;;;;;;;;;;5100442;28;20615;-67
2021/07/14 13:12:20;;;;;;;0.73;0.73;;;;;;;;;;5100522;28;20309;-67
2021/07/14 13:14:48;;;;;;;0.80;0.80;;;;;;;;;;5100502;28;20591;-67
2021/07/14 13:17:26;;;;;;;1.17;1.10;;;;;;;;;;5100315;28;20204;-67
2021/07/14 13:20:01;;;;;;;1.13;1.07;;;;;;;;;;5100503;28;20205;-67
2021/07/14 13:22:30;;;;;;;1.10;1.00;;;;;;;;;;5100220;28;20734;-67
2021/07/14 13:25:02;;;;;;;1.33;1.10;;;;;;;;;;5100216;28;20305;-67
2021/07/14 13:31:01;;;;;;;8.67;5.30;;;;;;;;;;5046039;28;20216;-67
2021/07/14 13:33:32;;;;;;;1.70;1.50;;;;;;;;;;5099923;28;20210;-67
2021/07/14 13:36:01;;;;;;;1.30;1.20;;;;;;;;;;5099309;28;20656;-67
2021/07/14 13:38:34;;;;;;;2.83;1.10;;;;;;;;;;5099828;28;20758;-67
2021/07/14 13:41:04;;;;;;;1.37;1.03;;;;;;;;;;5099393;28;20212;-67
2021/07/14 13:43:41;;;;;;;0.93;0.90;;;;;;;;;;5099519;28;20212;-67
2021/07/14 13:46:10;;;;;;;0.90;0.90;;;;;;;;;;5099385;28;20695;-66
2021/07/14 13:48:38;;;;;;;1.93;1.10;;;;;;;;;;5099904;28;20240;-67
2021/07/14 13:51:06;;;;;;;0.83;0.80;;;;;;;;;;5099821;28;20269;-67
2021/07/14 13:53:36;;;;;;;1.10;1.00;;;;;;;;;;5099867;28;20288;-67
2021/07/14 13:56:04;;;;;;;1.17;1.07;;;;;;;;;;5099428;28;20568;-67
2021/07/14 13:58:32;;;;;;;1.40;1.30;;;;;;;;;;5099770;28;20206;-67
2021/07/14 14:01:01;;;;;;;1.10;1.10;;;;;;;;;;5099371;28;20201;-67
2021/07/14 14:03:29;;;;;;;1.10;1.10;;;;;;;;;;5099489;28;20214;-67
2021/07/14 14:06:04;;;;;;;1.37;1.27;;;;;;;;;;5099452;28;20225;-67
2021/07/14 14:08:32;;;;;;;1.00;1.00;;;;;;;;;;5099297;28;20756;-67
2021/07/14 14:11:11;;;;;;;9.20;5.40;;;;;;;;;;5099087;28;20667;-67
2021/07/14 14:13:41;;;;;;;4.13;3.60;;;;;;;;;;5099363;28;20213;-67
2021/07/14 14:16:09;;;;;;;1.40;1.30;;;;;;;;;;5099140;28;20255;-67
2021/07/14 14:18:37;;;;;;;1.00;1.00;;;;;;;;;;5099315;28;20213;-67
2021/07/14 14:35:00;;;;;;;1.07;1.00;;;;;;;;;;5098852;28;20327;-67
2021/07/14 14:37:28;;;;;;;1.23;1.13;;;;;;;;;;5098786;28;20248;-67
2021/07/14 14:39:56;;;;;;;1.60;1.00;;;;;;;;;;5098822;28;20284;-67
2021/07/14 14:42:24;;;;;;;2.23;1.13;;;;;;;;;;5098201;28;20228;-67
2021/07/14 14:44:52;;;;;;;1.40;1.30;;;;;;;;;;5098843;28;20208;-67
2021/07/14 14:47:20;;;;;;;1.27;1.17;;;;;;;;;;5098304;28;20231;-67
2021/07/14 14:49:48;;;;;;;2.50;1.27;;;;;;;;;;5098615;28;20212;-67
2021/07/14 14:52:17;;;;;;;0.80;0.80;;;;;;;;;;5098581;28;20232;-67
2021/07/14 14:54:45;;;;;;;1.80;1.00;;;;;;;;;;5098680;28;20288;-67
2021/07/14 14:57:13;;;;;;;0.90;0.90;;;;;;;;;;5098701;28;20233;-67
2021/07/14 14:59:41;;;;;;;0.90;0.80;;;;;;;;;;5098654;28;20209;-67
2021/07/14 15:02:09;;;;;;;1.07;1.07;;;;;;;;;;5098208;28;20235;-67
2021/07/14 15:04:37;;;;;;;0.90;0.90;;;;;;;;;;5098361;28;20669;-67
2021/07/14 15:07:09;;;;;;;2.13;1.13;;;;;;;;;;5098386;28;20229;-67
2021/07/14 15:09:41;;;;;;;1.93;1.30;;;;;;;;;;5098443;28;20205;-67
2021/07/14 15:12:10;;;;;;;1.50;0.93;;;;;;;;;;5097977;28;20324;-67
2021/07/14 15:14:38;;;;;;;1.40;1.30;;;;;;;;;;5098181;28;20258;-67
2021/07/14 15:17:05;;;;;;;1.00;1.00;;;;;;;;;;5098007;28;20206;-67
2021/07/14 15:19:34;;;;;;;2.40;1.40;;;;;;;;;;5098314;28;20242;-67
2021/07/14 15:22:04;;;;;;;1.03;0.93;;;;;;;;;;5098191;28;20221;-67
2021/07/14 15:24:33;;;;;;;0.90;0.90;;;;;;;;;;5098184;28;20205;-67
2021/07/14 15:29:47;;;;;;;1.20;1.07;;;;;;;;;;5098300;28;20211;-67
2021/07/14 15:32:15;;;;;;;3.07;1.13;;;;;;;;;;5097844;28;20227;-67
2021/07/14 15:34:43;;;;;;;1.10;1.10;;;;;;;;;;5099231;28;20200;-67
2021/07/14 15:37:13;;;;;;;1.17;1.10;;;;;;;;;;5098877;28;20237;-67
2021/07/14 15:39:41;;;;;;;3.00;1.60;;;;;;;;;;5098020;28;20205;-67
2021/07/14 15:42:11;;;;;;;1.63;1.20;;;;;;;;;;5097653;28;20226;-67
2021/07/14 15:44:40;;;;;;;1.93;1.10;;;;;;;;;;5097739;28;20217;-67